Thief River Falls, MN

3:36 PM CST on November 28, 2014 (GMT -0600)
Thief River Falls Regional | Change Station
CLOSE
Current Station
Airport
Location: Thief River Falls,
Elevation: 1115 ft
Nearby Weather Stations
Active Advisory: Special Statement

Elev 1115 ft 48.06 °N, 96.18 °W | Updated 21 minutes ago

Overcast
Overcast
16 °F
Feels Like 3 °F
N
12
Wind Variable Wind from ESE

Today
High -- | Low -- °F
--% Chance of Precip.
Yesterday
High -- | Low -- °F
Precip. -- in
7:50 AM 4:34 PM
Waxing Crescent, 44% visible
Pressure 29.80 in
Visibility 1.8 miles
Clouds Scattered Clouds 1900 ft
Scattered Clouds 3000 ft
Overcast 3800 ft
Windchill 3 °F
Dew Point 10 °F
Humidity 79%
Rainfall 0.00 in
Snow Depth Not available.
UV 0 out of 12
Pollen .10 out of 12
Air Quality Not available.
Flu Activity Not available.
METAR KTVF 282115Z AUTO 12010KT 1 3/4SM SCT019 SCT030 OVC038 M09/M12 A2980 RMK AO1

More Conditions Fewer Conditions

Pressure 29.80 in
Visibility 1.8 miles
Clouds Scattered Clouds 1900 ft
Scattered Clouds 3000 ft
Overcast 3800 ft
Windchill 3 °F
Dew Point 10 °F
Humidity 79%
Rainfall 0.00 in
Snow Depth Not available.
UV 0 out of 12
Pollen .10 out of 12
Air Quality Not available.
Flu Activity Not available.
METAR KTVF 282115Z AUTO 12010KT 1 3/4SM SCT019 SCT030 OVC038 M09/M12 A2980 RMK AO1

More Conditions Fewer Conditions

10-Day Weather Forecast

Almanac

Astronomy

Nov. 28, 2014 Rise Set
Actual Time
Civil Twilight
Nautical Twilight
Astronomical Twilight
Moon
Length of Visible Light
Length of Day
Tomorrow will be .
, % of the Moon is Illuminated

Today's Extremes

State Highs State Lows

Community

WunderPhotos

Upload Photos

1,774,310 photos uploaded!

WunderBlogs® & News

Nearby

Air Quality

  Air Quality AQ Index Pollutant
Not available.

Snow Depth

Station Depth Elevation

Earthquake Activity

City Distance Mag. Time & Date
Minimum magnitude displayed is 2.5.

Coastal Water Temperatures

Place Temperature

Nearby Weather Stations